^^

Meteo Aereoporti Centro-Italia

 

 
LIRZ - Perugia S.Egidio (208 m.)
Dati ricevuti: 19/09/2018 08:50
Poco nuvoloso
Poco nuvoloso
 Vento da N
Vento: N 11 km/h
TEMPERATURA: 18°C
P.to di Rugiada: 17°C
Umidità: 94%
Pressione: 1020 hPa
Nuvole: Poco nuvoloso
Visibilità: 8 km
Dettagli Nuvole: Qualche nuvola 183 m
Poco nuvoloso 1829 m
2018/09/19 06:50 LIRZ 190650Z 35006KT 8000 FEW006 SCT060 18/17 Q1020
 
LIPY - Ancona Falconara (12 m.)
Dati ricevuti: 19/09/2018 08:50
Qualche nuvola
Qualche nuvola
 Vento da SW
Vento: SW 6 km/h
TEMPERATURA: 21°C
P.to di Rugiada: 19°C
Umidità: 88%
Pressione: 1019 hPa
Nuvole: Qualche nuvola
Visibilità: 10 km
Dettagli Nuvole: Qualche nuvola 457 m
2018/09/19 06:50 LIPY 190650Z 22003KT 190V250 9999 FEW015 21/19 Q1019
 
LIPR - Rimini Miramare (12 m.)
Dati ricevuti: 19/09/2018 09:20
Molto nuvoloso
Molto nuvoloso
 Vento da WNW
Vento: WNW 9 km/h
TEMPERATURA: 23°C
P.to di Rugiada: 19°C
Umidità: 78%
Pressione: 1019 hPa
Nuvole: Molto nuvoloso
Visibilità: 10 km
Dettagli Nuvole: Qualche nuvola 457 m
Molto nuvoloso 549 m
2018/09/19 07:20 LIPR 190720Z 29005KT 250V310 9999 FEW015 BKN018 23/19 Q1019
 
LIRF - Roma Fiumicino (2 m.)
Dati ricevuti: 19/09/2018 09:20
Poco nuvoloso
Poco nuvoloso
 Vento da ENE
Vento: ENE 9 km/h
TEMPERATURA: 22°C
P.to di Rugiada: 20°C
Umidità: 88%
Pressione: 1018 hPa
Nuvole: Poco nuvoloso
Visibilità: 10 km
Dettagli Nuvole: Poco nuvoloso 1524 m
2018/09/19 07:20 LIRF 190720Z 07005KT 040V110 9999 SCT050 22/20 Q1018 NOSIG
 
LIRA - Roma Ciampino (129 m.)
Dati ricevuti: 19/09/2018 09:20
Qualche nuvola
Qualche nuvola
 Vento da NNW
Vento: NNW 7 km/h
TEMPERATURA: 22°C
P.to di Rugiada: 19°C
Umidità: 83%
Pressione: 1019 hPa
Nuvole: Qualche nuvola
Visibilità: 10 km
Dettagli Nuvole: Qualche nuvola 2134 m
2018/09/19 07:20 LIRA 190720Z 33004KT 300V020 9999 FEW070 22/19 Q1019
 
LIRU - Roma Urbe (17 m.)
Dati ricevuti: 19/09/2018 08:50
Poco nuvoloso
Poco nuvoloso
 Vento da direzione variabile
Vento: direzione variabile 6 km/h
TEMPERATURA: 21°C
P.to di Rugiada: 19°C
Umidità: 88%
Pressione: 1018 hPa
Nuvole: Poco nuvoloso
Visibilità: 10 km
Dettagli Nuvole: Poco nuvoloso 1219 m
2018/09/19 06:50 LIRU 190650Z VRB03KT 9999 SCT040 21/19 Q1018
 
LIVF - Frontone (570 m.)
Dati ricevuti: 19/09/2018 08:55
Qualche nuvola
Qualche nuvola
 Vento da calm
Vento: Calma
TEMPERATURA: 18°C
P.to di Rugiada: 16°C
Umidità: 88%
Pressione: 1020 hPa
Nuvole: Qualche nuvola
Visibilità: 10 km
Dettagli Nuvole: Qualche nuvola 792 m
2018/09/19 06:55 LIVF 190655Z 00000KT 9999 FEW026 18/16 Q1020 RMK SCT MON LIB VAL NEBBIA SCT DIM VIS MIN 9999
 
LIRQ - Firenze Peretola (40 m.)
Dati ricevuti: 19/09/2018 09:20
Sereno
Sereno
 Vento da direzione variabile
Vento: direzione variabile 2 km/h
TEMPERATURA: 21°C
P.to di Rugiada: 18°C
Umidità: 83%
Pressione: 1019 hPa
Condizioni generali: Sereno
Visibilità: oltre 10 km
2018/09/19 07:20 LIRQ 190720Z VRB01KT CAVOK 21/18 Q1019
 
LIBP - Pescara (10 m.)
Dati ricevuti: 19/09/2018 08:50
Sereno
Sereno
 Vento da SSW
Vento: SSW 7 km/h
TEMPERATURA: 20°C
P.to di Rugiada: 19°C
Umidità: 94%
Pressione: 1019 hPa
Condizioni generali: Sereno
Visibilità: oltre 10 km
2018/09/19 06:50 LIBP 190650Z 21004KT CAVOK 20/19 Q1019
 
LIRV - Viterbo (300 m.)
Dati ricevuti: 19/09/2018 09:12
Qualche nuvola
Qualche nuvola
 Vento da direzione variabile
Vento: direzione variabile 0 km/h
TEMPERATURA: 18°C
P.to di Rugiada: 16°C
Umidità: 88%
Pressione: 1019 hPa
Nuvole: Qualche nuvola
Visibilità: 6 km
Dettagli Nuvole: Qualche nuvola 457 m
2018/09/19 07:12 LIRV 190712Z /////KT 6000 FEW015 18/16 Q1019 RMK BKN SCT100 BKN200 MON E SE INVIS NC VIS MIN 6000 WHT
 
LIQN - Rieti (389 m.)
Dati ricevuti: 18/09/2018 19:50
Dati non aggiornati
Poco nuvoloso
Poco nuvoloso
 Vento da SSE
Vento: SSE 17 km/h
TEMPERATURA: 23°C
P.to di Rugiada: 15°C
Umidità: 61%
Pressione: 1019 hPa
Nuvole: Poco nuvoloso
Visibilità: 10 km
Dettagli Nuvole: Poco nuvoloso 1219 m
2018/09/18 17:50 LIQN 181750Z 15009KT 9999 SCT040TCU 23/15 Q1019
 
LIRG - Guidonia -RM- (88 m.)
Dati ricevuti: 19/09/2018 08:55
Qualche nuvola
Qualche nuvola
 Vento da S
Vento: S 4 km/h
TEMPERATURA: 22°C
P.to di Rugiada: 19°C
Umidità: 83%
Pressione: 1018 hPa
Nuvole: Qualche nuvola
Visibilità: 10 km
Dettagli Nuvole: Qualche nuvola 1219 m
2018/09/19 06:55 LIRG 190655Z 17002KT 9999 FEW040 22/19 Q1018
 
LIRK - Terminillo -RI-(1874 m.)
Dati ricevuti: 08/06/2018 02:55
Dati non aggiornati

 Vento da direzione variabile
Vento: direzione variabile 0 km/h
2018/06/08 00:55 LIRK 080055Z AUTO /////KT //// ///// Q////
 
LIPK - Forlì (27 m.)
Dati ricevuti: 18/09/2018 17:50
Dati non aggiornati
Poco nuvoloso
Poco nuvoloso
 Vento da SSW
Vento: SSW 7 km/h
TEMPERATURA: 24°C
P.to di Rugiada: 18°C
Umidità: 69%
Pressione: 1018 hPa
Nuvole: Poco nuvoloso
Visibilità: 10 km
Dettagli Nuvole: Qualche nuvola 427 m
Poco nuvoloso 457 m
2018/09/18 15:50 LIPK 181550Z 20004KT 9999 FEW014CB SCT015 24/18 Q1018
 
LIRS - Grosseto (5 m.)
Dati ricevuti: 19/09/2018 08:55
Qualche nuvola
Qualche nuvola
 Vento da NNE
Vento: NNE 7 km/h
TEMPERATURA: 22°C
P.to di Rugiada: 20°C
Umidità: 88%
Pressione: 1018 hPa
Nuvole: Qualche nuvola
Visibilità: 10 km
Dettagli Nuvole: Qualche nuvola 305 m
Qualche nuvola 457 m
2018/09/19 06:55 LIRS 190655Z 02004KT 9999 FEW010 FEW015TCU 22/20 Q1018
 
LIRP - Pisa S.Giusto (2 m.)
Dati ricevuti: 19/09/2018 09:15
Sereno
Sereno
 Vento da ENE
Vento: ENE 6 km/h
TEMPERATURA: 21°C
P.to di Rugiada: 18°C
Umidità: 83%
Pressione: 1019 hPa
Condizioni generali: Sereno
Visibilità: oltre 10 km
2018/09/19 07:15 LIRP 190715Z 06003KT 030V090 CAVOK 21/18 Q1019 NOSIG